Time;durP1;ratioP1;P1;durP2;ratioP2;P2;SDS_P1;SDS_P2;PMS_P1;PMS_P2;Temp;Humidity;BMP_temperature;BMP_pressure;BME280_temperature;BME280_humidity;BME280_pressure;Samples;Min_cycle;Max_cycle;Signal;HPM_P1;HPM_P2
2023/04/24 00:02:10;;;;;;;1.48;0.50;;;;;;;19.04;38.47;100012.56;16128808;19;133183;-40
2023/04/24 00:07:33;;;;;;;2.13;0.75;;;;;;;19.03;38.92;100012.81;16123666;19;131523;-40
2023/04/24 00:12:55;;;;;;;2.00;0.88;;;;;;;19.01;38.43;100007.56;16119803;19;130534;-40
2023/04/24 00:18:17;;;;;;;4.28;0.82;;;;;;;18.98;38.44;100013.63;16127584;19;129792;-40
2023/04/24 00:23:39;;;;;;;1.70;0.57;;;;;;;18.97;38.65;100011.97;16125909;19;131922;-40
2023/04/24 00:29:01;;;;;;;4.40;0.73;;;;;;;18.94;38.52;100012.53;16126933;19;130277;-40
2023/04/24 00:34:23;;;;;;;3.33;0.77;;;;;;;18.92;38.67;100021.09;16123401;19;129743;-40
2023/04/24 00:39:45;;;;;;;3.55;0.82;;;;;;;18.92;38.63;100025.81;16124518;19;129042;-41
2023/04/24 00:45:07;;;;;;;5.13;0.85;;;;;;;18.90;38.42;100028.84;16124328;19;130262;-42
2023/04/24 00:50:30;;;;;;;3.00;0.90;;;;;;;18.88;38.84;100028.31;16123925;19;131034;-42
2023/04/24 00:55:52;;;;;;;3.88;0.93;;;;;;;18.87;38.64;100028.56;16125361;19;129863;-40
2023/04/24 01:01:14;;;;;;;1.65;0.73;;;;;;;18.86;38.59;100029.66;16121451;19;130082;-40
2023/04/24 01:06:38;;;;;;;4.07;0.80;;;;;;;18.86;38.72;100026.88;16123639;19;129558;-40
2023/04/24 01:12:01;;;;;;;9.02;0.82;;;;;;;18.84;38.71;100027.16;16122724;19;129465;-40
2023/04/24 01:17:23;;;;;;;2.05;0.80;;;;;;;18.82;38.74;100025.78;16124163;19;130966;-40
2023/04/24 01:22:45;;;;;;;3.65;0.68;;;;;;;18.81;38.46;100029.66;16117898;19;130775;-40
2023/04/24 01:28:07;;;;;;;3.05;0.95;;;;;;;18.80;38.66;100033.53;16121200;19;129698;-40
2023/04/24 01:33:29;;;;;;;2.50;0.90;;;;;;;18.79;38.81;100026.31;16122367;19;130570;-41
2023/04/24 01:38:51;;;;;;;5.03;0.98;;;;;;;18.77;38.65;100027.41;16117529;19;131827;-40
2023/04/24 01:44:14;;;;;;;3.25;0.90;;;;;;;18.76;38.55;100034.06;16123835;19;130283;-41
2023/04/24 01:49:38;;;;;;;2.63;0.90;;;;;;;18.75;38.32;100026.03;16121608;19;131317;-40
2023/04/24 01:55:00;;;;;;;2.13;0.90;;;;;;;18.75;38.53;100024.06;16122096;19;130366;-42
2023/04/24 02:00:22;;;;;;;4.30;0.90;;;;;;;18.73;38.29;100022.69;16122587;19;129185;-40
2023/04/24 02:05:45;;;;;;;2.42;1.10;;;;;;;18.72;38.39;100021.84;16119373;19;129784;-40
2023/04/24 02:11:09;;;;;;;2.75;1.00;;;;;;;18.71;38.45;100020.16;16121586;19;131015;-40
2023/04/24 02:16:32;;;;;;;4.20;1.00;;;;;;;18.71;38.35;100030.44;16120396;19;129652;-40
2023/04/24 02:21:54;;;;;;;2.83;1.00;;;;;;;18.70;38.61;100037.91;16121326;19;131038;-41
2023/04/24 02:27:16;;;;;;;2.38;0.90;;;;;;;18.70;38.25;100037.06;16121527;19;129928;-40
2023/04/24 02:32:38;;;;;;;2.03;1.25;;;;;;;18.68;38.30;100034.56;16119832;19;131331;-40
2023/04/24 02:38:00;;;;;;;5.53;1.10;;;;;;;18.66;38.45;100034.00;16122598;19;130259;-41
2023/04/24 02:43:22;;;;;;;3.83;0.90;;;;;;;18.65;38.14;100028.72;16120444;19;130778;-40
2023/04/24 02:48:44;;;;;;;2.90;1.23;;;;;;;18.64;38.13;100036.19;16122191;19;129835;-40
2023/04/24 02:54:08;;;;;;;1.50;0.90;;;;;;;18.63;38.38;100037.31;16118069;19;129731;-40
2023/04/24 02:59:30;;;;;;;1.50;1.02;;;;;;;18.62;38.14;100038.41;16114657;19;129990;-40
2023/04/24 03:04:51;;;;;;;2.90;1.13;;;;;;;18.60;38.36;100041.44;16115358;19;129416;-39
2023/04/24 03:10:13;;;;;;;3.55;1.13;;;;;;;18.59;38.29;100038.94;16115937;19;131536;-40
2023/04/24 03:15:35;;;;;;;5.40;1.30;;;;;;;18.58;38.06;100048.38;16116923;19;129499;-40
2023/04/24 03:20:57;;;;;;;3.97;0.80;;;;;;;18.56;38.08;100032.00;16117674;19;130045;-40
2023/04/24 03:26:19;;;;;;;1.95;0.90;;;;;;;18.56;38.36;100039.50;16113556;19;130942;-40
2023/04/24 03:31:41;;;;;;;3.45;1.00;;;;;;;18.54;38.34;100041.69;16115803;19;131062;-42
2023/04/24 03:37:03;;;;;;;5.40;1.10;;;;;;;18.54;38.12;100050.00;16117681;19;131062;-40
2023/04/24 03:42:25;;;;;;;2.05;0.90;;;;;;;18.53;38.41;100046.38;16116724;19;130039;-42
2023/04/24 03:47:47;;;;;;;1.95;0.88;;;;;;;18.51;38.18;100040.28;16112810;19;130322;-39
2023/04/24 03:53:09;;;;;;;2.72;0.88;;;;;;;18.51;38.49;100050.53;16112169;19;131281;-40
2023/04/24 03:58:31;;;;;;;2.05;0.93;;;;;;;18.50;38.29;100052.47;16111402;19;130486;-41
2023/04/24 04:03:52;;;;;;;1.35;0.80;;;;;;;18.50;38.32;100071.00;16113139;19;130065;-42
2023/04/24 04:09:15;;;;;;;4.50;0.80;;;;;;;18.49;38.34;100061.03;16113926;19;129894;-42
2023/04/24 04:14:36;;;;;;;1.70;0.80;;;;;;;18.48;38.18;100067.66;16113082;19;129201;-40
2023/04/24 04:19:58;;;;;;;3.60;0.85;;;;;;;18.48;38.06;100087.06;16114421;19;129669;-39
2023/04/24 04:25:20;;;;;;;2.10;0.80;;;;;;;18.45;38.40;100089.28;16109350;19;129438;-41
2023/04/24 04:30:42;;;;;;;2.97;0.70;;;;;;;18.45;38.00;100089.28;16110975;19;130275;-40
2023/04/24 04:36:04;;;;;;;1.27;0.52;;;;;;;18.43;38.34;100108.09;16112005;19;131050;-43
2023/04/24 04:41:26;;;;;;;2.28;0.80;;;;;;;18.42;38.47;100106.41;16123235;19;130013;-40
2023/04/24 04:46:48;;;;;;;1.73;0.70;;;;;;;18.40;37.96;100125.22;16125239;19;129292;-40
2023/04/24 04:52:10;;;;;;;1.65;0.60;;;;;;;18.39;37.94;100134.63;16125519;19;130400;-40
2023/04/24 04:57:32;;;;;;;4.97;0.80;;;;;;;18.39;37.98;100139.31;16124360;19;129528;-40
2023/04/24 05:02:54;;;;;;;1.33;0.77;;;;;;;18.37;38.39;100147.88;16123663;19;130961;-41
2023/04/24 05:08:29;;;;;;;0.63;0.50;;;;;;;18.39;38.03;100154.03;16124465;19;131052;-40
2023/04/24 05:13:51;;;;;;;2.00;0.60;;;;;;;18.65;37.76;100175.53;16124441;19;130495;-41
2023/04/24 05:19:14;;;;;;;0.60;0.40;;;;;;;18.93;37.41;100199.34;16123330;19;129350;-41
2023/04/24 05:24:36;;;;;;;1.05;0.60;;;;;;;19.13;37.43;100203.34;16124430;19;129410;-40
2023/04/24 05:29:58;;;;;;;4.53;0.40;;;;;;;19.28;37.26;100216.47;16125475;19;129805;-40
2023/04/24 05:35:20;;;;;;;1.55;0.40;;;;;;;19.34;37.20;100237.63;16121950;19;129965;-40
2023/04/24 05:40:42;;;;;;;0.28;0.28;;;;;;;19.34;37.27;100241.22;16125213;19;130450;-41
2023/04/24 05:46:04;;;;;;;1.25;0.70;;;;;;;19.32;36.86;100253.69;16123352;19;129433;-40
2023/04/24 05:51:26;;;;;;;0.30;0.22;;;;;;;19.27;36.93;100265.59;16119279;19;130592;-39
2023/04/24 05:56:49;;;;;;;2.10;0.70;;;;;;;19.21;37.20;100284.13;16121378;19;129449;-41
2023/04/24 06:02:11;;;;;;;0.85;0.55;;;;;;;19.14;37.28;100293.72;16118326;19;129847;-39
2023/04/24 06:07:33;;;;;;;0.75;0.40;;;;;;;19.08;37.12;100315.84;16123574;19;131181;-40
2023/04/24 06:12:59;;;;;;;0.95;0.52;;;;;;;19.01;37.37;100315.25;16124516;19;128856;-41
2023/04/24 06:18:21;;;;;;;1.20;0.60;;;;;;;18.95;37.30;100329.34;16120706;19;131321;-40
2023/04/24 06:23:43;;;;;;;2.25;0.40;;;;;;;18.90;37.26;100349.53;16123078;19;129556;-41
2023/04/24 06:29:07;;;;;;;2.65;0.95;;;;;;;18.86;37.56;100353.91;16121182;19;130544;-40
2023/04/24 06:34:30;;;;;;;4.18;0.60;;;;;;;18.83;37.82;100368.31;16120503;19;133320;-40
2023/04/24 06:39:52;;;;;;;1.92;0.60;;;;;;;18.78;37.63;100380.16;16117361;19;129502;-40
2023/04/24 06:45:14;;;;;;;6.38;0.60;;;;;;;18.74;37.71;100385.38;16118527;19;131205;-41
2023/04/24 06:50:36;;;;;;;8.35;1.00;;;;;;;18.75;37.92;100392.59;16119289;19;130907;-41
2023/04/24 06:55:58;;;;;;;9.88;1.20;;;;;;;18.79;38.11;100398.47;16114949;19;129750;-40
2023/04/24 07:01:20;;;;;;;15.65;1.20;;;;;;;18.88;37.78;100396.91;16116255;19;129896;-41
2023/04/24 07:06:42;;;;;;;9.93;1.00;;;;;;;18.99;37.62;100403.38;16119142;19;129153;-40
2023/04/24 07:12:03;;;;;;;6.72;1.05;;;;;;;19.08;37.48;100412.91;16118893;19;130795;-40
2023/04/24 07:17:25;;;;;;;17.65;1.33;;;;;;;19.17;37.32;100421.59;16116859;19;130915;-41
2023/04/24 07:22:48;;;;;;;8.88;0.73;;;;;;;19.24;37.24;100426.94;16114046;19;129257;-41
2023/04/24 07:28:10;;;;;;;18.05;1.40;;;;;;;19.32;37.10;100442.28;16115953;19;130552;-40
2023/04/24 07:33:32;;;;;;;5.90;0.95;;;;;;;19.38;37.39;100458.72;16118752;19;129300;-41
2023/04/24 07:38:55;;;;;;;16.23;1.08;;;;;;;19.40;36.97;100475.06;16111414;19;129505;-40
2023/04/24 07:44:17;;;;;;;8.32;1.13;;;;;;;19.40;37.39;100482.56;16115651;19;130389;-40
2023/04/24 07:49:39;;;;;;;6.43;0.98;;;;;;;19.40;36.97;100502.00;16113055;19;130392;-40
2023/04/24 07:55:02;;;;;;;5.45;1.00;;;;;;;19.40;37.33;100502.00;16113848;19;133659;-39
2023/04/24 08:00:23;;;;;;;7.35;1.20;;;;;;;19.39;36.92;100506.69;16115058;19;129996;-40
2023/04/24 08:05:45;;;;;;;4.28;0.80;;;;;;;19.40;36.90;100510.31;16115210;19;132684;-40
2023/04/24 08:11:07;;;;;;;4.70;0.70;;;;;;;19.43;37.13;100523.66;16114103;19;130361;-41
2023/04/24 08:16:29;;;;;;;4.65;1.05;;;;;;;19.50;37.20;100540.94;16127816;19;129432;-40
2023/04/24 08:21:52;;;;;;;3.28;0.75;;;;;;;19.55;36.96;100552.09;16125943;19;131719;-40
2023/04/24 08:27:14;;;;;;;5.22;1.00;;;;;;;19.57;36.65;100552.66;16119721;19;132596;-40
2023/04/24 08:32:36;;;;;;;8.38;1.42;;;;;;;19.60;36.97;100568.78;16123156;19;131134;-40
2023/04/24 08:37:58;;;;;;;6.80;0.98;;;;;;;19.63;36.94;100578.53;16121198;19;130019;-40
2023/04/24 08:43:22;;;;;;;7.25;0.95;;;;;;;19.64;36.55;100585.72;16117949;19;131295;-41
2023/04/24 08:48:45;;;;;;;4.17;0.90;;;;;;;19.55;36.82;100585.38;16126674;19;129626;-40
2023/04/24 08:54:08;;;;;;;3.83;1.00;;;;;;;19.49;36.80;100591.97;16128809;19;130351;-40
2023/04/24 08:59:33;;;;;;;7.75;1.25;;;;;;;19.43;36.80;100602.16;16128940;19;130378;-40
2023/04/24 09:04:56;;;;;;;;;;;;;;;19.32;37.13;100617.84;16124304;19;129429;-40
2023/04/24 09:10:17;;;;;;;5.32;1.38;;;;;;;19.30;37.22;100625.59;16127217;19;131920;-40
2023/04/24 09:15:40;;;;;;;4.53;1.00;;;;;;;19.25;36.80;100638.56;16127456;19;130005;-40
2023/04/24 09:21:06;;;;;;;3.08;0.70;;;;;;;19.24;37.16;100636.91;16128584;19;129951;-40
2023/04/24 09:26:36;;;;;;;3.70;1.00;;;;;;;19.28;37.38;100626.94;16124940;19;129794;-41
2023/04/24 09:31:58;;;;;;;3.47;0.80;;;;;;;19.22;37.18;100640.75;16129801;19;129016;-40
2023/04/24 09:37:30;;;;;;;3.92;1.10;;;;;;;19.22;37.27;100653.78;16129034;19;129567;-40
2023/04/24 09:42:55;;;;;;;3.00;0.85;;;;;;;19.18;37.21;100658.16;16126529;19;130320;-42
2023/04/24 09:48:17;;;;;;;2.22;0.68;;;;;;;19.14;37.59;100676.38;16128163;19;129399;-40
2023/04/24 09:53:41;;;;;;;6.95;1.05;;;;;;;19.13;37.52;100680.25;16125159;19;129568;-40
2023/04/24 09:59:07;;;;;;;3.93;0.90;;;;;;;19.11;37.50;100688.81;16126239;19;129522;-40
2023/04/24 10:04:29;;;;;;;2.50;0.90;;;;;;;19.07;37.71;100701.50;16125276;19;129552;-40
2023/04/24 10:09:51;;;;;;;1.88;0.70;;;;;;;19.05;37.61;100707.31;16122926;19;129384;-40
2023/04/24 10:15:14;;;;;;;4.07;0.95;;;;;;;19.06;37.41;100710.91;16120563;19;128979;-39
2023/04/24 10:20:37;;;;;;;6.90;1.00;;;;;;;19.08;37.44;100703.19;16122283;19;129701;-41
2023/04/24 10:26:00;;;;;;;3.67;0.85;;;;;;;19.06;37.56;100709.00;16120346;19;129533;-41
2023/04/24 10:31:22;;;;;;;3.78;1.00;;;;;;;19.05;37.37;100720.34;16122043;19;129690;-42
2023/04/24 10:36:51;;;;;;;3.90;0.77;;;;;;;19.07;37.19;100721.78;16121989;19;132214;-39
2023/04/24 10:42:16;;;;;;;4.45;0.90;;;;;;;19.05;37.29;100726.72;16121653;19;130581;-41
2023/04/24 10:47:42;;;;;;;4.53;1.02;;;;;;;19.02;37.05;100734.69;16119642;19;129418;-40
2023/04/24 10:53:15;;;;;;;3.38;0.70;;;;;;;18.99;37.46;100744.38;16121741;19;129518;-41
2023/04/24 10:58:38;;;;;;;1.90;0.70;;;;;;;18.97;37.24;100743.78;16118681;19;131151;-42
2023/04/24 11:04:04;;;;;;;5.13;1.17;;;;;;;18.95;37.17;100757.06;16118212;19;130949;-41
2023/04/24 11:09:28;;;;;;;6.47;0.98;;;;;;;18.96;36.88;100763.44;16119834;19;129818;-41
2023/04/24 11:14:59;;;;;;;3.20;1.00;;;;;;;18.99;37.07;100762.94;16120795;19;129618;-39
2023/04/24 11:20:23;;;;;;;3.40;0.68;;;;;;;18.99;37.02;100758.22;16121646;19;130809;-40
2023/04/24 11:26:35;;;;;;;4.70;0.70;;;;;;;19.01;36.92;100764.38;16116643;19;129898;-39
2023/04/24 11:32:14;;;;;;;2.30;0.60;;;;;;;19.03;36.85;100778.81;16117853;19;129095;-39
2023/04/24 11:37:39;;;;;;;2.05;0.70;;;;;;;19.05;36.95;100796.06;16117490;19;129902;-40
2023/04/24 11:43:00;;;;;;;2.67;0.77;;;;;;;19.08;36.69;100789.16;16118911;19;129685;-39
2023/04/24 11:48:22;;;;;;;2.72;0.60;;;;;;;19.10;36.71;100783.34;16118092;19;130391;-40
2023/04/24 11:53:45;;;;;;;1.88;0.68;;;;;;;19.12;37.02;100783.94;16132138;19;130606;-39
2023/04/24 11:59:10;;;;;;;1.38;0.55;;;;;;;19.10;36.99;100803.59;16132642;19;130830;-39
2023/04/24 12:04:40;;;;;;;2.58;0.80;;;;;;;19.12;36.92;100806.13;16130405;19;129725;-39
2023/04/24 12:10:05;;;;;;;3.30;0.60;;;;;;;19.11;36.75;100815.53;16134378;19;130927;-41
2023/04/24 12:15:28;;;;;;;3.00;0.90;;;;;;;19.11;36.52;100821.06;16132965;19;130524;-40
2023/04/24 12:20:50;;;;;;;4.18;1.10;;;;;;;19.10;36.50;100820.25;16127469;19;131328;-39
2023/04/24 12:26:16;;;;;;;2.00;0.80;;;;;;;19.10;36.67;100836.03;16128921;19;130627;-39
2023/04/24 12:31:38;;;;;;;3.30;0.68;;;;;;;19.08;36.33;100823.25;16125633;19;131374;-40
2023/04/24 12:37:10;;;;;;;2.60;0.60;;;;;;;19.11;36.49;100832.16;16125203;19;131256;-40
2023/04/24 12:42:33;;;;;;;4.03;0.70;;;;;;;19.11;36.23;100837.72;16126011;19;130196;-40
2023/04/24 12:47:55;;;;;;;4.32;0.82;;;;;;;19.10;36.05;100838.78;16121556;19;129784;-41
2023/04/24 12:53:17;;;;;;;2.42;0.82;;;;;;;19.10;35.98;100850.75;16121017;19;129396;-40
2023/04/24 12:58:39;;;;;;;2.05;0.50;;;;;;;19.12;36.06;100847.72;16122959;19;130356;-40
2023/04/24 13:04:01;;;;;;;2.50;0.57;;;;;;;19.12;36.10;100858.81;16126534;19;133242;-41
2023/04/24 13:09:23;;;;;;;2.55;0.73;;;;;;;19.15;36.00;100855.53;16124800;19;129490;-40
2023/04/24 13:14:45;;;;;;;2.08;0.80;;;;;;;19.15;35.96;100861.06;16124871;19;130224;-40
2023/04/24 13:20:07;;;;;;;1.55;0.52;;;;;;;19.17;35.94;100859.72;16123960;19;130152;-41
2023/04/24 13:25:35;;;;;;;1.52;0.50;;;;;;;19.18;35.43;100855.88;16121271;19;129961;-40
2023/04/24 13:30:57;;;;;;;1.27;0.30;;;;;;;19.18;35.58;100855.88;16125659;19;131044;-40
2023/04/24 13:36:19;;;;;;;4.28;0.65;;;;;;;19.18;35.85;100860.59;16122132;19;130273;-40
2023/04/24 13:41:41;;;;;;;1.02;0.40;;;;;;;19.16;35.38;100848.91;16122656;19;132915;-40
2023/04/24 13:47:02;;;;;;;1.52;0.50;;;;;;;19.17;35.58;100853.34;16125104;19;131115;-40
2023/04/24 13:52:24;;;;;;;1.52;0.40;;;;;;;19.16;35.49;100848.91;16121460;19;129992;-40
2023/04/24 13:57:46;;;;;;;2.63;0.60;;;;;;;19.18;35.49;100841.16;16117151;19;130600;-40
2023/04/24 14:03:08;;;;;;;2.30;0.55;;;;;;;19.17;35.73;100853.34;16121707;19;131412;-40
2023/04/24 14:08:30;;;;;;;2.95;0.68;;;;;;;19.17;35.29;100847.81;16121984;19;129276;-40
2023/04/24 14:13:54;;;;;;;1.20;0.50;;;;;;;19.15;35.03;100845.25;16117305;19;129626;-39
2023/04/24 14:19:16;;;;;;;3.25;0.50;;;;;;;19.15;35.39;100844.44;16115357;19;130119;-40
2023/04/24 14:24:38;;;;;;;1.15;0.40;;;;;;;19.12;35.35;100845.78;16118529;19;130465;-40
2023/04/24 14:30:00;;;;;;;1.38;0.50;;;;;;;19.12;35.24;100840.25;16119701;19;129569;-40
2023/04/24 14:35:22;;;;;;;0.75;0.30;;;;;;;19.13;35.39;100841.06;16118464;19;130536;-40
2023/04/24 14:40:44;;;;;;;2.83;0.40;;;;;;;19.17;35.35;100848.63;16115582;19;131169;-42
2023/04/24 14:46:25;;;;;;;1.35;0.40;;;;;;;19.20;35.68;100841.75;16121890;19;130286;-40
2023/04/24 14:51:48;;;;;;;4.25;0.50;;;;;;;19.24;35.40;100845.72;16117074;19;129586;-40
2023/04/24 14:57:10;;;;;;;2.65;0.40;;;;;;;19.32;34.86;100859.16;16117655;19;129440;-40
2023/04/24 15:02:33;;;;;;;1.08;0.32;;;;;;;19.36;35.10;100857.56;16117293;19;130185;-40
2023/04/24 15:07:55;;;;;;;2.60;0.43;;;;;;;19.44;34.63;100863.81;16117538;19;129360;-42
2023/04/24 15:13:17;;;;;;;2.72;0.85;;;;;;;19.50;34.56;100857.22;16114845;19;130975;-40
2023/04/24 15:18:39;;;;;;;1.77;0.40;;;;;;;19.52;34.32;100863.38;16113800;19;132041;-43
2023/04/24 15:24:00;;;;;;;4.68;0.50;;;;;;;19.55;33.99;100862.88;16117237;19;130837;-41
2023/04/24 15:29:22;;;;;;;4.97;0.55;;;;;;;19.57;33.77;100866.19;16111952;19;131296;-42
2023/04/24 15:34:44;;;;;;;4.75;0.57;;;;;;;19.60;33.90;100868.47;16106831;19;130929;-42
2023/04/24 15:40:10;;;;;;;5.30;0.63;;;;;;;19.65;33.98;100870.47;16114114;19;130752;-40
2023/04/24 15:45:32;;;;;;;2.60;0.57;;;;;;;19.65;34.19;100874.13;16116406;19;129870;-40
2023/04/24 15:50:55;;;;;;;5.38;0.70;;;;;;;19.64;33.92;100879.91;16115577;19;130390;-40
2023/04/24 15:56:17;;;;;;;2.45;0.63;;;;;;;19.66;33.82;100873.03;16117794;19;129112;-41
2023/04/24 16:01:39;;;;;;;3.33;1.08;;;;;;;19.66;34.08;100878.56;16112091;19;133519;-41
2023/04/24 16:07:02;;;;;;;5.35;0.70;;;;;;;19.68;34.21;100876.38;16118003;19;130097;-40
2023/04/24 16:12:26;;;;;;;7.07;0.73;;;;;;;19.65;33.95;100893.53;16114694;19;130393;-40
2023/04/24 16:17:49;;;;;;;5.20;1.00;;;;;;;19.59;34.25;100900.09;16113413;19;130713;-40
2023/04/24 16:23:11;;;;;;;7.65;0.95;;;;;;;19.53;33.71;100898.34;16113945;19;132092;-41
2023/04/24 16:28:32;;;;;;;4.65;0.80;;;;;;;19.51;33.71;100900.53;16111585;19;131105;-42
2023/04/24 16:33:54;;;;;;;4.32;0.90;;;;;;;19.47;33.71;100902.13;16114143;19;129846;-41
2023/04/24 16:39:16;;;;;;;3.75;0.90;;;;;;;19.51;33.45;100915.22;16125204;19;132555;-41
2023/04/24 16:44:39;;;;;;;4.03;0.85;;;;;;;19.64;33.32;100918.75;16127792;19;130453;-41
2023/04/24 16:50:01;;;;;;;5.55;1.00;;;;;;;19.78;33.54;100928.41;16126921;19;130670;-42
2023/04/24 16:55:24;;;;;;;2.22;0.63;;;;;;;19.86;33.25;100924.38;16128491;19;129614;-41
2023/04/24 17:00:47;;;;;;;2.88;0.57;;;;;;;19.88;33.13;100927.75;16128180;19;129578;-43
2023/04/24 17:06:09;;;;;;;3.70;0.70;;;;;;;19.86;32.92;100931.88;16123839;19;129996;-42
2023/04/24 17:11:31;;;;;;;3.40;0.88;;;;;;;19.80;33.09;100930.97;16125987;19;130047;-41
2023/04/24 17:16:53;;;;;;;2.85;0.85;;;;;;;19.76;33.20;100932.56;16120812;19;130895;-42
2023/04/24 17:22:15;;;;;;;4.10;0.70;;;;;;;19.79;33.10;100934.81;16123808;19;132282;-42
2023/04/24 17:27:36;;;;;;;5.80;1.27;;;;;;;19.83;33.19;100933.19;16117255;19;130002;-41
2023/04/24 17:32:58;;;;;;;2.92;1.40;;;;;;;19.89;33.49;100921.09;16123997;19;131095;-40
2023/04/24 17:38:20;;;;;;;7.68;2.50;;;;;;;19.92;33.57;100923.38;16119309;19;129640;-43
2023/04/24 17:43:44;;;;;;;13.90;7.70;;;;;;;19.94;33.66;100932.25;16122872;19;131216;-42
2023/04/24 17:49:06;;;;;;;17.27;9.38;;;;;;;19.89;33.83;100923.00;16117095;19;130035;-41
2023/04/24 17:54:28;;;;;;;20.45;9.18;;;;;;;19.87;33.81;100942.72;16124952;19;129495;-42
2023/04/24 17:59:50;;;;;;;19.70;7.95;;;;;;;19.81;33.60;100946.53;16121337;19;129773;-41
2023/04/24 18:05:12;;;;;;;16.50;6.25;;;;;;;19.76;33.57;100950.03;16118055;19;130168;-42
2023/04/24 18:10:37;;;;;;;9.35;5.10;;;;;;;19.76;33.20;100949.22;16120039;19;129550;-42
2023/04/24 18:15:59;;;;;;;10.17;4.57;;;;;;;19.74;33.54;100948.63;16120843;19;129182;-43
2023/04/24 18:21:22;;;;;;;6.15;3.28;;;;;;;19.68;33.61;100965.22;16121054;19;131461;-43
2023/04/24 18:26:44;;;;;;;8.88;3.05;;;;;;;19.62;33.74;100960.66;16116113;19;129440;-42
2023/04/24 18:32:09;;;;;;;13.50;3.37;;;;;;;19.60;33.26;100971.16;16117829;19;129828;-42
2023/04/24 18:37:32;;;;;;;4.82;2.08;;;;;;;19.61;33.55;100970.06;16118055;19;131002;-42
2023/04/24 18:42:55;;;;;;;4.07;1.90;;;;;;;19.75;33.58;100986.38;16118283;19;131269;-43
2023/04/24 18:48:17;;;;;;;6.35;1.63;;;;;;;19.99;33.41;100987.06;16113665;19;130845;-45
2023/04/24 18:53:39;;;;;;;2.80;1.58;;;;;;;20.26;33.00;100984.44;16112945;19;130273;-42
2023/04/24 18:59:01;;;;;;;4.20;1.50;;;;;;;20.52;32.88;100993.13;16117703;19;134694;-43
2023/04/24 19:04:23;;;;;;;3.33;1.25;;;;;;;20.75;32.38;100999.50;16116702;19;129666;-41
2023/04/24 19:09:45;;;;;;;4.63;1.10;;;;;;;20.95;32.25;101003.66;16117109;19;130641;-43
2023/04/24 19:15:10;;;;;;;4.15;1.00;;;;;;;21.12;32.17;101009.97;16114470;19;131289;-41
2023/04/24 19:20:32;;;;;;;4.00;0.80;;;;;;;21.24;32.13;101022.91;16113537;19;130361;-41
2023/04/24 19:25:54;;;;;;;1.83;0.80;;;;;;;21.32;32.23;101023.28;16106129;19;130696;-41
2023/04/24 19:31:16;;;;;;;2.40;0.70;;;;;;;21.39;32.15;101023.06;16116252;19;128987;-41
2023/04/24 19:36:38;;;;;;;3.78;0.88;;;;;;;21.41;31.75;101032.00;16109792;19;130447;-42
2023/04/24 19:42:01;;;;;;;3.22;0.70;;;;;;;21.34;32.03;101039.69;16115215;19;130308;-44
2023/04/24 19:47:25;;;;;;;1.38;0.50;;;;;;;21.21;32.38;101036.22;16116832;19;131308;-42
2023/04/24 19:52:47;;;;;;;2.47;0.57;;;;;;;21.07;32.47;101040.50;16112609;19;131298;-45
2023/04/24 19:58:10;;;;;;;1.48;0.60;;;;;;;20.90;32.84;101046.16;16112059;19;129666;-43
2023/04/24 20:03:31;;;;;;;2.08;0.75;;;;;;;20.76;32.66;101045.72;16113564;19;130439;-41
2023/04/24 20:08:55;;;;;;;6.35;0.88;;;;;;;20.62;32.93;101033.25;16112855;19;130378;-42
2023/04/24 20:14:17;;;;;;;12.45;1.23;;;;;;;20.45;33.13;101040.53;16128012;19;129806;-45
2023/04/24 20:19:39;;;;;;;11.02;1.25;;;;;;;20.35;33.47;101039.53;16124520;19;129559;-41
2023/04/24 20:25:01;;;;;;;15.63;1.40;;;;;;;20.28;33.90;101045.28;16126038;19;130273;-40
2023/04/24 20:30:24;;;;;;;5.72;0.98;;;;;;;20.23;34.22;101050.78;16122492;19;131896;-46
2023/04/24 20:35:46;;;;;;;4.20;0.85;;;;;;;20.15;34.10;101052.03;16123590;19;131063;-47
2023/04/24 20:41:09;;;;;;;5.72;1.10;;;;;;;20.10;34.82;101050.03;16121568;19;128974;-51
2023/04/24 20:46:32;;;;;;;2.20;1.02;;;;;;;20.09;35.03;101047.47;16125009;19;131588;-41
2023/04/24 20:51:54;;;;;;;3.55;0.57;;;;;;;20.08;34.84;101056.91;16120813;19;130244;-51
2023/04/24 20:57:15;;;;;;;15.43;1.63;;;;;;;20.06;35.59;101059.13;16119383;19;131723;-45
2023/04/24 21:02:37;;;;;;;11.40;1.10;;;;;;;20.02;35.89;101052.38;16121383;19;129819;-51
2023/04/24 21:08:00;;;;;;;5.20;1.17;;;;;;;20.02;36.05;101057.94;16124839;19;130931;-48
2023/04/24 21:13:21;;;;;;;15.52;1.60;;;;;;;19.98;36.13;101046.47;16121029;19;129625;-44
2023/04/24 21:18:44;;;;;;;14.52;1.42;;;;;;;19.96;35.92;101048.66;16119197;19;130557;-47
2023/04/24 21:24:06;;;;;;;15.27;1.38;;;;;;;19.96;36.16;101048.66;16118259;19;131068;-50
2023/04/24 21:29:28;;;;;;;5.28;0.80;;;;;;;19.93;36.41;101055.56;16121110;19;132444;-46
2023/04/24 21:34:50;;;;;;;24.73;1.52;;;;;;;19.91;36.33;101043.84;16118475;19;129440;-51
2023/04/24 21:40:11;;;;;;;6.60;1.10;;;;;;;19.90;36.40;101038.53;16120507;19;129981;-49
2023/04/24 21:45:33;;;;;;;9.52;0.88;;;;;;;19.88;36.93;101036.03;16121834;19;130235;-45
2023/04/24 21:50:55;;;;;;;13.20;1.05;;;;;;;19.86;37.08;101029.88;16120063;19;129990;-43
2023/04/24 21:56:17;;;;;;;15.93;0.90;;;;;;;19.84;36.93;101020.94;16120318;19;130474;-43
2023/04/24 22:01:39;;;;;;;9.05;1.27;;;;;;;19.83;36.89;101030.38;16121377;19;129498;-40
2023/04/24 22:07:01;;;;;;;14.77;1.42;;;;;;;19.80;37.05;101030.91;16119386;19;133666;-41
2023/04/24 22:12:23;;;;;;;12.48;1.38;;;;;;;19.75;37.36;101030.81;16122364;19;129741;-41
2023/04/24 22:17:44;;;;;;;16.50;1.38;;;;;;;19.66;36.93;101028.44;16118493;19;130369;-41
2023/04/24 22:23:06;;;;;;;13.00;1.60;;;;;;;19.61;37.17;101035.84;16117899;19;130215;-40
2023/04/24 22:28:28;;;;;;;10.23;1.10;;;;;;;19.55;37.20;101036.81;16113449;19;131049;-40
2023/04/24 22:33:50;;;;;;;16.77;1.50;;;;;;;19.50;37.31;101040.34;16117351;19;129213;-40
2023/04/24 22:39:16;;;;;;;9.93;1.33;;;;;;;19.44;37.02;101046.91;16115509;19;130594;-42
2023/04/24 22:44:38;;;;;;;7.55;0.88;;;;;;;19.38;37.13;101044.03;16117475;19;130318;-40
2023/04/24 22:49:59;;;;;;;8.90;1.38;;;;;;;19.35;37.21;101043.69;16120136;19;130184;-41
2023/04/24 22:55:21;;;;;;;6.45;1.13;;;;;;;19.31;37.41;101046.13;16117020;19;129626;-40
2023/04/24 23:00:43;;;;;;;10.95;1.00;;;;;;;19.26;37.27;101046.03;16116146;19;132222;-40
2023/04/24 23:06:05;;;;;;;8.52;1.30;;;;;;;19.22;37.06;101047.59;16117387;19;130239;-40
2023/04/24 23:11:27;;;;;;;8.07;1.23;;;;;;;19.20;36.96;101041.44;16118813;19;130660;-40
2023/04/24 23:16:49;;;;;;;2.22;0.60;;;;;;;19.18;37.24;101044.44;16117496;19;131590;-41
2023/04/24 23:22:11;;;;;;;2.50;0.73;;;;;;;19.16;37.14;101041.06;16116072;19;130073;-40
2023/04/24 23:27:34;;;;;;;5.85;0.90;;;;;;;19.12;37.43;101039.03;16116778;19;130450;-41
2023/04/24 23:32:56;;;;;;;6.25;1.33;;;;;;;19.09;37.22;101051.47;16111547;19;130410;-41
2023/04/24 23:38:18;;;;;;;3.55;0.68;;;;;;;19.06;37.32;101046.41;16117019;19;130966;-43
2023/04/24 23:43:39;;;;;;;4.43;0.52;;;;;;;19.04;37.11;101043.03;16109595;19;129866;-42
2023/04/24 23:49:05;;;;;;;3.10;0.68;;;;;;;19.02;37.26;101046.06;16112151;19;131217;-44
2023/04/24 23:54:27;;;;;;;2.15;0.60;;;;;;;18.99;37.25;101043.78;16113645;19;129439;-44
2023/04/24 23:59:49;;;;;;;4.32;0.77;;;;;;;18.98;36.88;101039.31;16112258;19;129746;-42
